createdAt,value
2018-05-21T00:00:54.699Z,17.10
2018-05-21T00:03:22.175Z,17.10
2018-05-21T00:05:49.642Z,17.00
2018-05-21T00:08:17.062Z,17.00
2018-05-21T00:10:45.249Z,17.00
2018-05-21T00:13:14.201Z,17.00
2018-05-21T00:15:41.674Z,17.00
2018-05-21T00:18:09.147Z,17.00
2018-05-21T00:20:36.614Z,17.00
2018-05-21T00:23:04.082Z,16.90
2018-05-21T00:25:31.506Z,17.00
2018-05-21T00:27:59.018Z,16.90
2018-05-21T00:30:26.454Z,16.90
2018-05-21T00:32:54.660Z,16.90
2018-05-21T00:35:22.863Z,16.90
2018-05-21T00:37:50.290Z,16.90
2018-05-21T00:40:17.715Z,16.90
2018-05-21T00:42:45.133Z,16.90
2018-05-21T00:45:12.590Z,16.90
2018-05-21T00:47:40.111Z,16.90
2018-05-21T00:50:07.526Z,16.80
2018-05-21T00:52:35.055Z,16.80
2018-05-21T00:55:14.408Z,16.80
2018-05-21T00:57:41.880Z,16.80
2018-05-21T01:00:09.298Z,16.80
2018-05-21T01:02:36.731Z,16.80
2018-05-21T01:05:04.147Z,16.80
2018-05-21T01:07:32.366Z,16.70
2018-05-21T01:09:59.839Z,16.70
2018-05-21T01:12:27.322Z,16.70
2018-05-21T01:14:54.742Z,16.80
2018-05-21T01:17:22.938Z,16.80
2018-05-21T01:19:51.118Z,16.70
2018-05-21T01:22:19.354Z,16.70
2018-05-21T01:24:46.774Z,16.70
2018-05-21T01:27:15.022Z,16.70
2018-05-21T01:29:42.464Z,16.70
2018-05-21T01:32:09.885Z,16.70
2018-05-21T01:34:37.402Z,16.70
2018-05-21T01:37:04.832Z,16.80
2018-05-21T01:39:32.312Z,16.70
2018-05-21T01:42:00.515Z,16.70
2018-05-21T01:44:27.930Z,16.70
2018-05-21T01:46:55.370Z,16.70
2018-05-21T01:49:22.837Z,16.70
2018-05-21T01:51:50.306Z,16.70
2018-05-21T01:54:17.781Z,16.70
2018-05-21T01:56:45.202Z,16.60
2018-05-21T01:59:14.134Z,16.60
2018-05-21T02:01:41.622Z,16.60
2018-05-21T02:04:09.094Z,16.60
2018-05-21T02:06:36.518Z,16.60
2018-05-21T02:09:05.726Z,16.60
2018-05-21T02:11:33.247Z,16.60
2018-05-21T02:14:00.706Z,16.60
2018-05-21T02:16:28.186Z,16.60
2018-05-21T02:18:55.615Z,16.60
2018-05-21T02:21:23.835Z,16.60
2018-05-21T02:23:51.312Z,16.60
2018-05-21T02:26:18.726Z,16.50
2018-05-21T02:28:46.962Z,16.50
2018-05-21T02:31:14.451Z,16.50
2018-05-21T02:33:41.903Z,16.50
2018-05-21T02:36:09.327Z,16.40
2018-05-21T02:38:37.515Z,16.40
2018-05-21T02:41:05.043Z,16.40
2018-05-21T02:43:32.472Z,16.40
2018-05-21T02:46:00.688Z,16.40
2018-05-21T02:48:28.126Z,16.30
2018-05-21T02:50:56.317Z,16.30
2018-05-21T02:53:24.537Z,16.30
2018-05-21T02:55:51.963Z,16.30
2018-05-21T02:58:19.473Z,16.30
2018-05-21T03:00:46.898Z,16.30
2018-05-21T03:03:14.322Z,16.30
2018-05-21T03:05:41.783Z,16.30
2018-05-21T03:08:09.207Z,16.20
2018-05-21T03:10:36.719Z,16.20
2018-05-21T03:13:04.210Z,16.20
2018-05-21T03:15:31.638Z,16.20
2018-05-21T03:17:59.818Z,16.20
2018-05-21T03:20:28.013Z,16.10
2018-05-21T03:22:56.204Z,16.10
2018-05-21T03:25:24.403Z,16.10
2018-05-21T03:27:51.875Z,16.10
2018-05-21T03:30:19.309Z,16.10
2018-05-21T03:32:48.254Z,16.00
2018-05-21T03:35:15.682Z,16.00
2018-05-21T03:37:43.194Z,16.00
2018-05-21T03:40:10.618Z,16.00
2018-05-21T03:42:38.645Z,16.00
2018-05-21T03:45:06.071Z,16.00
2018-05-21T03:47:33.588Z,15.90
2018-05-21T03:50:01.054Z,15.90
2018-05-21T03:52:28.470Z,15.90
2018-05-21T03:54:57.412Z,15.90
2018-05-21T03:57:24.893Z,15.90
2018-05-21T04:00:04.176Z,15.90
2018-05-21T04:02:43.703Z,15.90
2018-05-21T04:05:11.168Z,15.80
2018-05-21T04:07:38.596Z,15.80
2018-05-21T04:10:06.103Z,15.90
2018-05-21T04:12:33.578Z,15.80
2018-05-21T04:15:01.043Z,15.90
2018-05-21T04:17:28.518Z,15.90
2018-05-21T04:19:55.934Z,15.90
2018-05-21T04:22:23.362Z,15.90
2018-05-21T04:24:50.784Z,15.90
2018-05-21T04:27:18.209Z,15.90
2018-05-21T04:29:45.666Z,15.90
2018-05-21T04:32:13.134Z,16.00
2018-05-21T04:34:40.606Z,16.00
2018-05-21T04:37:08.071Z,16.00
2018-05-21T04:39:35.569Z,16.10
2018-05-21T04:42:03.170Z,16.10
2018-05-21T04:44:30.594Z,16.20
2018-05-21T04:46:58.015Z,16.20
2018-05-21T04:49:26.243Z,16.30
2018-05-21T04:51:53.709Z,16.30
2018-05-21T04:54:21.183Z,16.30
2018-05-21T04:56:48.607Z,16.30
2018-05-21T04:59:16.025Z,16.40
2018-05-21T05:01:43.482Z,16.40
2018-05-21T05:04:10.908Z,16.40
2018-05-21T05:06:39.102Z,16.40
2018-05-21T05:09:06.614Z,16.40
2018-05-21T05:11:34.039Z,16.40
2018-05-21T05:14:01.557Z,16.40
2018-05-21T05:16:29.021Z,16.40
2018-05-21T05:18:56.490Z,16.40
2018-05-21T05:21:23.909Z,16.40
2018-05-21T05:23:51.435Z,16.40
2018-05-21T05:26:18.858Z,16.40
2018-05-21T05:28:46.375Z,16.40
2018-05-21T05:31:13.798Z,16.40
2018-05-21T05:33:41.990Z,16.50
2018-05-21T05:36:09.498Z,16.50
2018-05-21T05:38:36.930Z,16.50
2018-05-21T05:41:04.350Z,16.50
2018-05-21T05:43:31.773Z,16.60
2018-05-21T05:45:59.994Z,16.60
2018-05-21T05:48:27.423Z,16.60
2018-05-21T05:50:54.938Z,16.60
2018-05-21T05:53:22.362Z,16.70
2018-05-21T05:55:49.806Z,16.70
2018-05-21T05:58:17.347Z,16.80
2018-05-21T06:00:44.822Z,16.80
2018-05-21T06:03:12.246Z,16.80
2018-05-21T06:05:39.755Z,16.90
2018-05-21T06:08:07.184Z,16.90
2018-05-21T06:10:34.699Z,16.90
2018-05-21T06:13:02.114Z,17.00
2018-05-21T06:15:29.642Z,17.00
2018-05-21T06:17:57.058Z,17.00
2018-05-21T06:20:24.486Z,17.10
2018-05-21T06:22:51.939Z,17.10
2018-05-21T06:25:19.410Z,17.10
2018-05-21T06:27:46.834Z,17.20
2018-05-21T06:30:14.262Z,17.20
2018-05-21T06:32:41.722Z,17.20
2018-05-21T06:35:09.148Z,17.30
2018-05-21T06:37:36.659Z,17.40
2018-05-21T06:40:04.127Z,17.50
2018-05-21T06:42:31.551Z,17.60
2018-05-21T06:45:00.496Z,17.70
2018-05-21T06:47:27.983Z,17.70
2018-05-21T06:49:55.438Z,17.80
2018-05-21T06:52:22.911Z,17.80
2018-05-21T06:54:50.344Z,17.90
2018-05-21T06:57:17.851Z,18.00
2018-05-21T06:59:45.348Z,18.10
2018-05-21T07:02:12.698Z,18.10
2018-05-21T07:04:40.131Z,18.20
2018-05-21T07:07:08.314Z,18.30
2018-05-21T07:09:36.539Z,18.40
2018-05-21T07:12:04.011Z,18.40
2018-05-21T07:14:31.446Z,18.40
2018-05-21T07:16:59.656Z,18.60
2018-05-21T07:19:27.074Z,18.60
2018-05-21T07:21:54.602Z,18.70
2018-05-21T07:24:22.052Z,18.80
2018-05-21T07:26:49.543Z,18.90
2018-05-21T07:29:16.967Z,19.00
2018-05-21T07:31:45.159Z,19.20
2018-05-21T07:34:12.667Z,19.10
2018-05-21T07:36:40.142Z,19.20
2018-05-21T07:39:07.563Z,19.30
2018-05-21T07:41:36.499Z,19.30
2018-05-21T07:44:03.987Z,19.30
2018-05-21T07:46:31.414Z,19.30
2018-05-21T07:48:59.659Z,19.50
2018-05-21T07:51:27.240Z,19.50
2018-05-21T07:53:54.526Z,19.60
2018-05-21T07:56:21.955Z,19.60
2018-05-21T07:58:49.401Z,19.70
2018-05-21T08:01:16.886Z,19.80
2018-05-21T08:03:44.305Z,19.90
2018-05-21T08:06:11.727Z,20.00
2018-05-21T08:08:39.150Z,20.10
2018-05-21T08:11:07.396Z,20.10
2018-05-21T08:13:34.809Z,20.20
2018-05-21T08:16:03.106Z,20.40
2018-05-21T08:18:31.290Z,20.50
2018-05-21T08:20:59.494Z,20.60
2018-05-21T08:23:26.977Z,20.60
2018-05-21T08:25:54.427Z,20.70
2018-05-21T08:28:22.606Z,20.90
2018-05-21T08:30:50.791Z,21.00
2018-05-21T08:33:19.015Z,21.20
2018-05-21T08:35:46.436Z,21.10
2018-05-21T08:38:13.858Z,21.30
2018-05-21T08:40:41.274Z,21.40
2018-05-21T08:43:08.698Z,21.50
2018-05-21T08:45:36.114Z,21.50
2018-05-21T08:48:03.633Z,21.50
2018-05-21T08:50:31.099Z,21.50
2018-05-21T08:52:58.566Z,21.60
2018-05-21T08:55:26.031Z,21.60
2018-05-21T08:57:53.464Z,21.70
2018-05-21T09:00:20.980Z,21.70
2018-05-21T09:02:48.351Z,21.80
2018-05-21T09:05:15.766Z,21.80
2018-05-21T09:07:43.287Z,21.90
2018-05-21T09:10:10.855Z,22.00
2018-05-21T09:12:38.183Z,22.10
2018-05-21T09:15:05.611Z,22.30
2018-05-21T09:17:33.059Z,22.40
2018-05-21T09:20:00.486Z,22.60
2018-05-21T09:22:28.004Z,22.70
2018-05-21T09:24:55.468Z,22.80
2018-05-21T09:27:22.943Z,23.00
2018-05-21T09:29:50.407Z,23.10
2018-05-21T09:32:17.908Z,23.30
2018-05-21T09:34:45.348Z,23.50
2018-05-21T09:37:12.816Z,23.70
2018-05-21T09:39:40.247Z,23.90
2018-05-21T09:42:07.737Z,24.00
2018-05-21T09:44:35.110Z,24.20
2018-05-21T09:47:02.700Z,24.30
2018-05-21T09:49:30.110Z,24.50
2018-05-21T09:51:57.531Z,24.70
2018-05-21T09:54:24.951Z,24.90
2018-05-21T09:56:52.478Z,24.90
2018-05-21T09:59:20.766Z,24.90
2018-05-21T10:01:48.191Z,25.00
2018-05-21T10:04:15.703Z,25.10
2018-05-21T10:06:43.118Z,25.30
2018-05-21T10:09:10.551Z,25.50
2018-05-21T10:11:37.971Z,25.70
2018-05-21T10:14:05.395Z,25.80
2018-05-21T10:16:32.959Z,25.70
2018-05-21T10:19:00.387Z,25.70
2018-05-21T10:21:28.615Z,25.90
2018-05-21T10:23:56.038Z,25.90
2018-05-21T10:26:23.555Z,26.20
2018-05-21T10:28:50.983Z,26.30
2018-05-21T10:31:18.495Z,26.60
2018-05-21T10:33:45.963Z,26.80
2018-05-21T10:36:13.435Z,26.90
2018-05-21T10:38:40.864Z,26.90
2018-05-21T10:41:09.043Z,27.00
2018-05-21T10:43:36.565Z,27.00
2018-05-21T10:46:03.982Z,26.80
2018-05-21T10:48:31.415Z,26.80
2018-05-21T10:50:58.830Z,26.80
2018-05-21T10:53:27.025Z,27.10
2018-05-21T10:55:55.243Z,27.40
2018-05-21T10:58:22.714Z,27.40
2018-05-21T11:00:50.174Z,27.70
2018-05-21T11:03:17.649Z,27.80
2018-05-21T11:05:45.115Z,27.80
2018-05-21T11:08:12.546Z,28.00
2018-05-21T11:10:39.964Z,28.00
2018-05-21T11:13:07.387Z,27.90
2018-05-21T11:15:34.900Z,27.90
2018-05-21T11:18:02.389Z,27.90
2018-05-21T11:20:29.834Z,27.80
2018-05-21T11:22:57.307Z,28.00
2018-05-21T11:25:24.774Z,28.20
2018-05-21T11:27:52.194Z,28.40
2018-05-21T11:30:20.382Z,28.70
2018-05-21T11:32:47.907Z,28.70
2018-05-21T11:35:15.375Z,29.00
2018-05-21T11:37:42.790Z,29.00
2018-05-21T11:40:10.214Z,28.90
2018-05-21T11:42:37.682Z,28.90
2018-05-21T11:45:05.150Z,28.90
2018-05-21T11:47:32.567Z,28.90
2018-05-21T11:49:59.994Z,29.20
2018-05-21T11:52:27.485Z,29.40
2018-05-21T11:54:55.642Z,29.80
2018-05-21T11:57:23.110Z,29.80
2018-05-21T11:59:50.579Z,30.00
2018-05-21T12:02:18.012Z,30.10
2018-05-21T12:04:45.519Z,30.10
2018-05-21T12:07:12.942Z,30.30
2018-05-21T12:09:41.875Z,29.70
2018-05-21T12:12:10.079Z,29.30
2018-05-21T12:14:37.506Z,29.30
2018-05-21T12:17:04.936Z,28.90
2018-05-21T12:19:32.395Z,28.50
2018-05-21T12:21:59.807Z,28.30
2018-05-21T12:24:27.238Z,28.20
2018-05-21T12:26:54.704Z,28.40
2018-05-21T12:29:22.194Z,28.30
2018-05-21T12:31:49.667Z,28.20
2018-05-21T12:34:17.106Z,27.80
2018-05-21T12:36:44.530Z,27.70
2018-05-21T12:39:12.051Z,27.60
2018-05-21T12:41:39.479Z,27.70
2018-05-21T12:44:07.000Z,27.80
2018-05-21T12:46:34.470Z,27.60
2018-05-21T12:49:01.901Z,27.70
2018-05-21T12:51:30.114Z,28.30
2018-05-21T12:53:57.579Z,28.30
2018-05-21T12:56:25.000Z,28.50
2018-05-21T12:58:52.422Z,28.60
2018-05-21T13:01:19.843Z,28.80
2018-05-21T13:03:47.365Z,28.80
2018-05-21T13:06:14.792Z,28.90
2018-05-21T13:08:43.018Z,29.30
2018-05-21T13:11:10.489Z,29.30
2018-05-21T13:13:37.908Z,29.50
2018-05-21T13:16:05.330Z,29.20
2018-05-21T13:18:32.802Z,29.00
2018-05-21T13:21:00.230Z,29.10
2018-05-21T13:23:28.422Z,29.60
2018-05-21T13:25:56.615Z,29.60
2018-05-21T13:28:24.800Z,29.60
2018-05-21T13:30:53.007Z,29.60
2018-05-21T13:33:20.479Z,29.50
2018-05-21T13:35:47.959Z,29.80
2018-05-21T13:38:15.378Z,30.10
2018-05-21T13:40:42.842Z,30.50
2018-05-21T13:43:10.321Z,30.70
2018-05-21T13:45:37.719Z,31.00
2018-05-21T13:48:05.237Z,30.70
2018-05-21T13:50:32.667Z,30.80
2018-05-21T13:53:00.088Z,31.00
2018-05-21T13:55:27.610Z,31.20
2018-05-21T13:57:55.078Z,31.40
2018-05-21T14:00:22.552Z,31.50
2018-05-21T14:02:49.966Z,31.50
2018-05-21T14:05:17.493Z,31.70
2018-05-21T14:07:44.957Z,31.70
2018-05-21T14:10:12.427Z,31.70
2018-05-21T14:12:40.014Z,31.00
2018-05-21T14:15:07.326Z,30.70
2018-05-21T14:17:35.535Z,30.80
2018-05-21T14:20:03.752Z,30.80
2018-05-21T14:22:31.170Z,30.80
2018-05-21T14:24:59.370Z,30.10
2018-05-21T14:27:27.583Z,30.00
2018-05-21T14:29:55.003Z,30.00
2018-05-21T14:32:22.423Z,30.00
2018-05-21T14:34:49.871Z,30.20
2018-05-21T14:37:18.078Z,30.60
2018-05-21T14:39:45.505Z,30.60
2018-05-21T14:42:12.998Z,30.80
2018-05-21T14:44:41.230Z,31.10
2018-05-21T14:47:08.655Z,31.00
2018-05-21T14:49:36.846Z,30.60
2018-05-21T14:52:05.031Z,30.50
2018-05-21T14:54:33.224Z,30.60
2018-05-21T14:57:00.640Z,30.60
2018-05-21T14:59:28.067Z,30.50
2018-05-21T15:01:55.492Z,30.00
2018-05-21T15:04:23.063Z,29.60
2018-05-21T15:06:50.585Z,29.70
2018-05-21T15:09:18.059Z,29.80
2018-05-21T15:11:45.522Z,29.80
2018-05-21T15:14:12.990Z,29.60
2018-05-21T15:16:40.414Z,29.50
2018-05-21T15:19:07.938Z,29.70
2018-05-21T15:21:35.402Z,30.00
2018-05-21T15:24:02.882Z,30.30
2018-05-21T15:26:30.305Z,30.60
2018-05-21T15:28:57.814Z,30.80
2018-05-21T15:31:25.306Z,31.10
2018-05-21T15:33:52.729Z,31.10
2018-05-21T15:36:20.951Z,31.00
2018-05-21T15:38:48.414Z,31.00
2018-05-21T15:41:15.852Z,31.10
2018-05-21T15:43:43.263Z,31.10
2018-05-21T15:46:10.722Z,31.10
2018-05-21T15:48:38.281Z,31.10
2018-05-21T15:51:05.682Z,31.10
2018-05-21T15:53:33.114Z,31.20
2018-05-21T15:56:00.542Z,31.40
2018-05-21T15:58:27.963Z,31.50
2018-05-21T16:00:55.391Z,31.50
2018-05-21T16:03:22.902Z,31.40
2018-05-21T16:05:50.331Z,31.40
2018-05-21T16:08:17.750Z,31.20
2018-05-21T16:10:45.179Z,30.90
2018-05-21T16:13:13.362Z,30.50
2018-05-21T16:15:41.559Z,30.50
2018-05-21T16:18:09.751Z,30.50
2018-05-21T16:20:37.966Z,30.40
2018-05-21T16:23:05.430Z,30.30
2018-05-21T16:25:32.858Z,30.30
2018-05-21T16:28:00.383Z,30.20
2018-05-21T16:30:27.806Z,30.00
2018-05-21T16:32:55.998Z,29.70
2018-05-21T16:35:24.220Z,29.60
2018-05-21T16:37:51.680Z,29.60
2018-05-21T16:40:19.112Z,29.50
2018-05-21T16:42:46.531Z,29.50
2018-05-21T16:45:13.987Z,29.40
2018-05-21T16:47:41.508Z,29.30
2018-05-21T16:50:08.935Z,29.10
2018-05-21T16:52:36.410Z,29.00
2018-05-21T16:55:03.849Z,28.90
2018-05-21T16:57:32.040Z,28.40
2018-05-21T17:00:00.228Z,28.20
2018-05-21T17:02:27.710Z,28.10
2018-05-21T17:04:55.136Z,28.00
2018-05-21T17:07:22.725Z,27.70
2018-05-21T17:09:50.139Z,27.60
2018-05-21T17:12:17.591Z,27.40
2018-05-21T17:14:45.023Z,27.30
2018-05-21T17:17:12.438Z,27.10
2018-05-21T17:19:39.858Z,26.90
2018-05-21T17:22:07.375Z,26.80
2018-05-21T17:24:34.791Z,26.80
2018-05-21T17:27:02.223Z,26.70
2018-05-21T17:29:29.683Z,26.60
2018-05-21T17:31:57.122Z,26.40
2018-05-21T17:34:25.351Z,26.30
2018-05-21T17:36:52.802Z,26.20
2018-05-21T17:39:20.286Z,26.20
2018-05-21T17:41:47.699Z,26.20
2018-05-21T17:44:15.124Z,26.20
2018-05-21T17:46:42.550Z,26.20
2018-05-21T17:49:10.744Z,26.10
2018-05-21T17:51:38.982Z,26.10
2018-05-21T17:54:07.139Z,26.10
2018-05-21T17:56:34.567Z,26.00
2018-05-21T17:59:01.988Z,26.00
2018-05-21T18:01:29.415Z,25.90
2018-05-21T18:03:57.632Z,25.80
2018-05-21T18:06:25.054Z,25.80
2018-05-21T18:08:52.524Z,25.70
2018-05-21T18:11:19.905Z,25.60
2018-05-21T18:13:48.127Z,25.50
2018-05-21T18:16:15.594Z,25.40
2018-05-21T18:18:43.102Z,25.40
2018-05-21T18:21:10.543Z,25.30
2018-05-21T18:23:37.984Z,25.20
2018-05-21T18:26:05.487Z,25.20
2018-05-21T18:28:32.947Z,25.10
2018-05-21T18:31:00.423Z,25.00
2018-05-21T18:33:27.848Z,24.90
2018-05-21T18:35:55.349Z,24.80
2018-05-21T18:38:22.723Z,24.70
2018-05-21T18:40:50.199Z,24.70
2018-05-21T18:43:17.625Z,24.60
2018-05-21T18:45:45.143Z,24.50
2018-05-21T18:48:12.566Z,24.40
2018-05-21T18:50:40.078Z,24.30
2018-05-21T18:53:07.494Z,24.20
2018-05-21T18:55:35.016Z,24.10
2018-05-21T18:58:02.439Z,24.00
2018-05-21T19:00:29.867Z,24.00
2018-05-21T19:02:57.328Z,23.90
2018-05-21T19:05:24.759Z,23.80
2018-05-21T19:07:52.948Z,23.60
2018-05-21T19:10:21.142Z,23.50
2018-05-21T19:12:49.386Z,23.40
2018-05-21T19:15:16.856Z,23.40
2018-05-21T19:17:44.307Z,23.30
2018-05-21T19:20:11.723Z,23.20
2018-05-21T19:22:39.163Z,23.20
2018-05-21T19:25:06.589Z,23.10
2018-05-21T19:27:34.037Z,23.00
2018-05-21T19:30:01.643Z,22.90
2018-05-21T19:32:29.069Z,22.80
2018-05-21T19:34:58.109Z,22.70
2018-05-21T19:37:25.481Z,22.70
2018-05-21T19:39:53.642Z,22.60
2018-05-21T19:42:22.578Z,22.50
2018-05-21T19:44:49.998Z,22.50
2018-05-21T19:47:18.954Z,22.40
2018-05-21T19:49:46.380Z,22.40
2018-05-21T19:52:15.346Z,22.30
2018-05-21T19:54:42.805Z,22.30
2018-05-21T19:57:10.227Z,22.30
2018-05-21T19:59:37.646Z,22.20
2018-05-21T20:02:05.111Z,22.10
2018-05-21T20:04:32.541Z,22.00
2018-05-21T20:07:00.730Z,21.90
2018-05-21T20:09:28.922Z,21.80
2018-05-21T20:11:57.123Z,21.80
2018-05-21T20:14:24.551Z,21.80
2018-05-21T20:16:51.988Z,21.70
2018-05-21T20:19:19.926Z,21.70
2018-05-21T20:21:47.305Z,21.60
2018-05-21T20:24:14.735Z,21.60
2018-05-21T20:26:42.260Z,21.50
2018-05-21T20:29:09.734Z,21.40
2018-05-21T20:31:37.155Z,21.40
2018-05-21T20:34:04.675Z,21.30
2018-05-21T20:36:32.144Z,21.30
2018-05-21T20:38:59.571Z,21.20
2018-05-21T20:41:26.987Z,21.10
2018-05-21T20:43:54.422Z,21.10
2018-05-21T20:46:22.610Z,21.00
2018-05-21T20:48:50.808Z,20.90
2018-05-21T20:51:18.238Z,20.90
2018-05-21T20:53:47.202Z,20.80
2018-05-21T20:56:14.618Z,20.80
2018-05-21T20:58:43.579Z,20.70
2018-05-21T21:01:11.010Z,20.70
2018-05-21T21:03:39.230Z,20.60
2018-05-21T21:06:06.647Z,20.60
2018-05-21T21:08:34.067Z,20.60
2018-05-21T21:11:01.510Z,20.50
2018-05-21T21:13:29.702Z,20.40
2018-05-21T21:15:57.135Z,20.40
2018-05-21T21:18:26.067Z,20.30
2018-05-21T21:20:54.301Z,20.30
2018-05-21T21:23:21.785Z,20.30
2018-05-21T21:25:49.952Z,20.30
2018-05-21T21:28:17.366Z,20.20
2018-05-21T21:30:44.794Z,20.20
2018-05-21T21:33:12.218Z,20.20
2018-05-21T21:35:40.430Z,20.10
2018-05-21T21:38:07.899Z,20.10
2018-05-21T21:40:35.326Z,20.10
2018-05-21T21:43:02.762Z,20.00
2018-05-21T21:45:30.218Z,20.00
2018-05-21T21:47:57.647Z,20.00
2018-05-21T21:50:25.833Z,19.90
2018-05-21T21:52:54.054Z,19.80
2018-05-21T21:55:21.478Z,19.80
2018-05-21T21:57:48.898Z,19.80
2018-05-21T22:00:16.363Z,19.80
2018-05-21T22:02:43.828Z,19.80
2018-05-21T22:05:11.303Z,19.70
2018-05-21T22:07:38.770Z,19.70
2018-05-21T22:10:06.248Z,19.70
2018-05-21T22:12:33.818Z,19.70
2018-05-21T22:15:01.234Z,19.70
2018-05-21T22:17:28.676Z,19.70
2018-05-21T22:19:56.123Z,19.70
2018-05-21T22:22:23.546Z,19.60
2018-05-21T22:24:51.782Z,19.60
2018-05-21T22:27:19.201Z,19.60
2018-05-21T22:29:46.713Z,19.60
2018-05-21T22:32:14.187Z,19.50
2018-05-21T22:34:41.602Z,19.50
2018-05-21T22:37:09.124Z,19.50
2018-05-21T22:39:36.599Z,19.50
2018-05-21T22:42:04.030Z,19.40
2018-05-21T22:44:46.266Z,19.40
2018-05-21T22:47:14.460Z,19.40
2018-05-21T22:49:41.874Z,19.40
2018-05-21T22:52:09.306Z,19.30
2018-05-21T22:54:36.775Z,19.30
2018-05-21T22:57:04.196Z,19.30
2018-05-21T22:59:31.626Z,19.30
2018-05-21T23:01:59.050Z,19.20
2018-05-21T23:04:27.276Z,19.20
2018-05-21T23:06:54.698Z,19.20
2018-05-21T23:09:23.079Z,19.20
2018-05-21T23:11:51.263Z,19.10
2018-05-21T23:14:18.708Z,19.10
2018-05-21T23:16:46.158Z,19.10
2018-05-21T23:19:13.590Z,19.10
2018-05-21T23:21:41.095Z,19.10
2018-05-21T23:24:08.632Z,19.10
2018-05-21T23:26:37.570Z,19.00
2018-05-21T23:29:04.997Z,19.00
2018-05-21T23:31:32.414Z,19.00
2018-05-21T23:33:59.885Z,19.00
2018-05-21T23:36:28.046Z,18.90
2018-05-21T23:38:56.242Z,18.90
2018-05-21T23:41:23.732Z,18.80
2018-05-21T23:43:51.159Z,18.80
2018-05-21T23:46:19.359Z,18.60
2018-05-21T23:48:47.563Z,18.60
2018-05-21T23:51:14.985Z,18.60
2018-05-21T23:53:42.510Z,18.60
2018-05-21T23:56:09.930Z,18.50
2018-05-21T23:58:37.358Z,18.50
